»·PEaware :: N1718G KNYL-KOLS

N1718G :: KNYL-KOLS

FLIGHT INFORMATION

Flight Status: Arrived
Operator: Privately registered:
United States
More flights under this callsign
Pilot: Spencer M. (27733)
Aircraft: ECLIPSE 500
(EA50)
More flights by this aircraft type
Origin: KNYL Yuma MCAS/Yuma Intl
United States
Destination: KOLS Nogales Intl
United States
More flights between these airports :: More routes between these airports
Route:
File this flight plan on PilotEdge
Remarks:
Altitude:
(Current/Filed)
17,000ft
Speed:
(Current/Filed)
310kts
Departed: 08-Oct-20 07:32 PM
Arrived: 08-Oct-20 08:20 PM
Distance/Time
Traveled:
205nm/0:48
Distance/Time
To Go:
Arrived

Flight Plot

Page will automatically refresh every two minutes.

Flight plan parsing failed; only flown route is shown


Map Options




Map Legend


Flown Route
Filed Route
Departure Airport
Arrival Airport
Navaid (VOR, NDB)
Fix

Horizontal Profiles

Position Reports

Time Latitude Longitude Heading Altitude Ground
Speed
08-Oct-20 19:19 32.659567 -114.595324 44 214ft 0kts
08-Oct-20 19:20 32.659567 -114.595324 44 214ft 0kts
08-Oct-20 19:21 32.659567 -114.595324 44 214ft 0kts
08-Oct-20 19:22 32.659567 -114.595324 44 214ft 0kts
08-Oct-20 19:23 32.659679 -114.595210 37 214ft 4kts
08-Oct-20 19:24 32.661208 -114.593698 41 214ft 6kts
08-Oct-20 19:25 32.662552 -114.591733 68 214ft 10kts
08-Oct-20 19:26 32.662601 -114.588320 88 214ft 10kts
08-Oct-20 19:27 32.663766 -114.585965 359 214ft 13kts
08-Oct-20 19:28 32.665441 -114.585965 359 214ft 0kts
08-Oct-20 19:29 32.665441 -114.585965 359 214ft 0kts
08-Oct-20 19:30 32.665461 -114.585965 359 214ft 1kts
08-Oct-20 19:31 32.666019 -114.597448 268 214ft 108kts
08-Oct-20 19:32 32.655259 -114.642933 204 1458ft 178kts
08-Oct-20 19:33 32.625857 -114.606966 82 3220ft 196kts
08-Oct-20 19:34 32.638183 -114.542921 76 4852ft 209kts
08-Oct-20 19:35 32.652474 -114.472967 76 6266ft 226kts
08-Oct-20 19:36 32.667252 -114.399093 77 7675ft 233kts
08-Oct-20 19:37 32.653116 -114.326040 111 9081ft 233kts
08-Oct-20 19:38 32.630761 -114.254304 111 10479ft 231kts
08-Oct-20 19:39 32.607775 -114.184058 125 11875ft 225kts
08-Oct-20 19:40 32.577807 -114.120121 117 13544ft 219kts
08-Oct-20 19:41 32.553613 -114.055695 115 15534ft 209kts
08-Oct-20 19:42 32.530997 -113.991128 115 16751ft 232kts
08-Oct-20 19:43 32.504126 -113.912565 114 17183ft 279kts
08-Oct-20 19:44 32.473729 -113.823046 114 17502ft 312kts
08-Oct-20 19:45 32.439947 -113.723635 114 17502ft 336kts
08-Oct-20 19:46 32.404340 -113.619139 113 17510ft 347kts
08-Oct-20 19:47 32.367867 -113.512462 113 17518ft 352kts
08-Oct-20 19:48 32.330851 -113.404558 113 17518ft 355kts
08-Oct-20 19:49 32.293595 -113.296320 114 17517ft 356kts
08-Oct-20 19:50 32.256130 -113.187835 114 17517ft 356kts
08-Oct-20 19:51 32.218640 -113.079634 114 17517ft 356kts
08-Oct-20 19:52 32.180970 -112.971254 114 17517ft 357kts
08-Oct-20 19:53 32.143263 -112.863132 114 17517ft 358kts
08-Oct-20 19:54 32.105201 -112.754364 114 17517ft 359kts
08-Oct-20 19:55 32.067065 -112.645738 114 17517ft 359kts
08-Oct-20 19:56 32.028668 -112.536717 114 17499ft 360kts
08-Oct-20 19:57 31.990228 -112.427925 114 17499ft 360kts
08-Oct-20 19:58 31.952104 -112.320377 115 16518ft 348kts
08-Oct-20 19:59 31.915210 -112.216654 115 15502ft 341kts
08-Oct-20 20:00 31.878717 -112.114354 115 14497ft 337kts
08-Oct-20 20:01 31.843344 -112.015470 114 13502ft 322kts
08-Oct-20 20:02 31.808808 -111.919230 114 12504ft 316kts
08-Oct-20 20:03 31.775557 -111.826801 114 11506ft 301kts
08-Oct-20 20:04 31.743188 -111.737084 114 10507ft 295kts
08-Oct-20 20:05 31.711313 -111.648968 114 9514ft 293kts
08-Oct-20 20:06 31.679385 -111.560929 114 8515ft 292kts
08-Oct-20 20:07 31.648359 -111.475580 114 8373ft 280kts
08-Oct-20 20:08 31.617821 -111.391830 114 8170ft 285kts
08-Oct-20 20:09 31.587848 -111.309771 115 8142ft 265kts
08-Oct-20 20:10 31.559164 -111.231449 114 8167ft 259kts
08-Oct-20 20:11 31.530850 -111.154305 114 8179ft 256kts
08-Oct-20 20:12 31.504342 -111.082222 114 7888ft 220kts
08-Oct-20 20:13 31.480953 -111.021490 117 7211ft 189kts
08-Oct-20 20:14 31.453391 -110.970691 131 6444ft 181kts
08-Oct-20 20:15 31.420157 -110.930805 138 5988ft 162kts
08-Oct-20 20:16 31.391003 -110.901767 122 5399ft 119kts
08-Oct-20 20:17 31.398931 -110.870350 39 4348ft 113kts
08-Oct-20 20:18 31.417933 -110.847593 46 3958ft 72kts
08-Oct-20 20:20 31.422466 -110.842684 319 3958ft 3kts
08-Oct-20 20:21 31.420623 -110.846099 225 3958ft 21kts
08-Oct-20 20:22 31.418331 -110.849516 276 3958ft 6kts
08-Oct-20 20:23 31.418178 -110.849912 228 3958ft 0kts

Navigation Log

Ident Type
Flight plan parsing failed, navigation log unavailable